createdAt,value
2022-09-18T00:01:44.399Z,10.80
2022-09-18T00:04:15.085Z,10.80
2022-09-18T00:06:44.934Z,10.80
2022-09-18T00:09:16.015Z,10.80
2022-09-18T00:11:47.956Z,10.80
2022-09-18T00:14:18.427Z,10.80
2022-09-18T00:16:48.666Z,10.70
2022-09-18T00:19:17.673Z,10.70
2022-09-18T00:21:47.816Z,10.70
2022-09-18T00:24:17.795Z,10.70
2022-09-18T00:26:46.607Z,10.70
2022-09-18T00:29:16.333Z,10.60
2022-09-18T00:31:45.999Z,10.60
2022-09-18T00:34:16.596Z,10.60
2022-09-18T00:36:45.923Z,10.50
2022-09-18T00:39:14.682Z,10.50
2022-09-18T00:41:44.306Z,10.40
2022-09-18T00:44:41.091Z,10.40
2022-09-18T00:47:21.193Z,10.40
2022-09-18T00:49:56.312Z,10.30
2022-09-18T00:52:29.134Z,10.30
2022-09-18T00:55:03.717Z,10.20
2022-09-18T00:57:34.785Z,10.20
2022-09-18T01:00:06.093Z,10.10
2022-09-18T01:02:34.449Z,10.10
2022-09-18T01:05:04.456Z,10.00
2022-09-18T01:07:42.189Z,10.00
2022-09-18T01:10:24.203Z,10.00
2022-09-18T01:12:56.394Z,9.90
2022-09-18T01:15:34.925Z,9.90
2022-09-18T01:18:14.013Z,9.90
2022-09-18T01:21:02.577Z,9.90
2022-09-18T01:23:51.743Z,9.80
2022-09-18T01:26:33.205Z,9.80
2022-09-18T01:29:09.896Z,9.80
2022-09-18T01:31:46.111Z,9.70
2022-09-18T01:34:19.363Z,9.70
2022-09-18T01:36:53.246Z,9.70
2022-09-18T01:39:29.161Z,9.70
2022-09-18T01:41:58.915Z,9.60
2022-09-18T01:44:32.596Z,9.60
2022-09-18T01:47:09.388Z,9.60
2022-09-18T01:49:43.103Z,9.50
2022-09-18T01:52:16.934Z,9.50
2022-09-18T01:54:49.974Z,9.50
2022-09-18T01:57:23.447Z,9.40
2022-09-18T01:59:58.649Z,9.40
2022-09-18T02:02:32.580Z,9.30
2022-09-18T02:05:03.994Z,9.30
2022-09-18T02:07:40.786Z,9.30
2022-09-18T02:10:09.556Z,9.20
2022-09-18T02:12:42.343Z,9.20
2022-09-18T02:15:14.906Z,9.10
2022-09-18T02:17:56.485Z,9.10
2022-09-18T02:20:37.362Z,9.00
2022-09-18T02:23:07.814Z,9.00
2022-09-18T02:25:39.967Z,9.00
2022-09-18T02:28:10.576Z,8.90
2022-09-18T02:30:40.730Z,8.80
2022-09-18T02:33:24.755Z,8.80
2022-09-18T02:36:16.737Z,8.80
2022-09-18T02:38:55.413Z,8.70
2022-09-18T02:41:33.957Z,8.70
2022-09-18T02:44:10.424Z,8.60
2022-09-18T02:46:51.669Z,8.60
2022-09-18T02:49:33.406Z,8.50
2022-09-18T02:52:06.399Z,8.50
2022-09-18T02:54:43.394Z,8.50
2022-09-18T02:57:16.776Z,8.40
2022-09-18T02:59:50.485Z,8.40
2022-09-18T03:02:23.776Z,8.40
2022-09-18T03:04:52.776Z,8.40
2022-09-18T03:07:47.258Z,8.40
2022-09-18T03:10:15.703Z,8.40
2022-09-18T03:12:44.228Z,8.40
2022-09-18T03:15:12.822Z,8.40
2022-09-18T03:17:42.444Z,8.30
2022-09-18T03:20:11.154Z,8.30
2022-09-18T03:22:39.497Z,8.30
2022-09-18T03:25:13.545Z,8.30
2022-09-18T03:27:43.090Z,8.20
2022-09-18T03:30:16.389Z,8.20
2022-09-18T03:32:46.093Z,8.20
2022-09-18T03:35:14.946Z,8.20
2022-09-18T03:37:43.378Z,8.20
2022-09-18T03:40:16.485Z,8.20
2022-09-18T03:42:46.214Z,8.20
2022-09-18T03:45:14.933Z,8.20
2022-09-18T03:47:46.835Z,8.20
2022-09-18T03:50:16.426Z,8.20
2022-09-18T03:52:49.011Z,8.30
2022-09-18T03:55:39.818Z,8.30
2022-09-18T03:58:26.578Z,8.30
2022-09-18T04:01:13.832Z,8.40
2022-09-18T04:04:02.215Z,8.40
2022-09-18T04:06:53.433Z,8.40
2022-09-18T04:09:40.750Z,8.40
2022-09-18T04:12:09.356Z,8.40
2022-09-18T04:14:38.077Z,8.40
2022-09-18T04:17:06.439Z,8.30
2022-09-18T04:19:36.261Z,8.40
2022-09-18T04:22:04.806Z,8.40
2022-09-18T04:24:34.996Z,8.40
2022-09-18T04:27:04.896Z,8.40
2022-09-18T04:29:33.771Z,8.50
2022-09-18T04:32:02.995Z,8.50
2022-09-18T04:34:31.301Z,8.60
2022-09-18T04:37:01.004Z,8.60
2022-09-18T04:39:30.078Z,8.60
2022-09-18T04:42:01.739Z,8.70
2022-09-18T04:44:30.135Z,8.60
2022-09-18T04:46:59.590Z,8.60
2022-09-18T04:49:27.883Z,8.70
2022-09-18T04:51:56.227Z,8.60
2022-09-18T04:54:27.636Z,8.60
2022-09-18T04:56:56.857Z,8.70
2022-09-18T04:59:25.184Z,8.70
2022-09-18T05:01:57.369Z,8.70
2022-09-18T05:04:25.836Z,8.80
2022-09-18T05:07:05.210Z,8.80
2022-09-18T05:09:37.706Z,8.80
2022-09-18T05:12:08.116Z,8.90
2022-09-18T05:14:38.046Z,8.90
2022-09-18T05:17:08.814Z,8.90
2022-09-18T05:19:42.827Z,9.00
2022-09-18T05:22:16.955Z,9.20
2022-09-18T05:24:50.700Z,9.50
2022-09-18T05:27:21.443Z,9.80
2022-09-18T05:29:53.145Z,9.90
2022-09-18T05:32:35.763Z,10.00
2022-09-18T05:35:04.198Z,10.10
2022-09-18T05:37:34.667Z,10.10
2022-09-18T05:40:05.592Z,10.10
2022-09-18T05:42:34.210Z,10.10
2022-09-18T05:45:02.506Z,10.10
2022-09-18T05:47:33.401Z,10.20
2022-09-18T05:50:01.768Z,10.20
2022-09-18T05:52:30.065Z,10.20
2022-09-18T05:54:58.496Z,10.30
2022-09-18T05:57:29.224Z,10.30
2022-09-18T05:59:57.613Z,10.30
2022-09-18T06:02:27.828Z,10.40
2022-09-18T06:05:13.304Z,10.40
2022-09-18T06:07:41.723Z,10.50
2022-09-18T06:10:10.254Z,10.50
2022-09-18T06:12:39.963Z,10.60
2022-09-18T06:15:09.182Z,10.60
2022-09-18T06:17:38.077Z,10.70
2022-09-18T06:20:09.024Z,10.80
2022-09-18T06:22:37.983Z,10.80
2022-09-18T06:25:10.385Z,10.90
2022-09-18T06:27:40.888Z,11.00
2022-09-18T06:30:09.834Z,11.10
2022-09-18T06:32:38.685Z,11.10
2022-09-18T06:35:07.816Z,11.20
2022-09-18T06:37:36.545Z,11.30
2022-09-18T06:40:12.910Z,11.30
2022-09-18T06:43:05.841Z,11.40
2022-09-18T06:45:57.594Z,11.40
2022-09-18T06:48:29.353Z,11.50
2022-09-18T06:51:00.268Z,11.50
2022-09-18T06:53:33.553Z,11.60
2022-09-18T06:56:04.976Z,11.60
2022-09-18T06:58:38.106Z,11.70
2022-09-18T07:01:07.032Z,11.80
2022-09-18T07:03:44.516Z,11.90
2022-09-18T07:06:19.816Z,12.00
2022-09-18T07:08:50.585Z,12.20
2022-09-18T07:11:32.066Z,12.30
2022-09-18T07:14:06.325Z,12.50
2022-09-18T07:16:34.879Z,12.60
2022-09-18T07:19:06.207Z,12.70
2022-09-18T07:21:34.568Z,12.80
2022-09-18T07:24:03.174Z,12.90
2022-09-18T07:26:33.522Z,13.00
2022-09-18T07:29:09.877Z,13.10
2022-09-18T07:31:38.759Z,13.20
2022-09-18T07:34:10.108Z,13.20
2022-09-18T07:36:38.463Z,13.30
2022-09-18T07:39:06.844Z,13.30
2022-09-18T07:41:53.134Z,13.40
2022-09-18T07:44:23.100Z,13.60
2022-09-18T07:46:55.571Z,13.70
2022-09-18T07:49:25.105Z,13.80
2022-09-18T07:51:53.938Z,13.90
2022-09-18T07:54:22.430Z,13.90
2022-09-18T07:57:01.356Z,13.90
2022-09-18T07:59:39.918Z,13.80
2022-09-18T08:02:08.512Z,13.70
2022-09-18T08:04:39.346Z,13.70
2022-09-18T08:07:16.539Z,13.60
2022-09-18T08:09:59.438Z,13.50
2022-09-18T08:12:48.095Z,13.40
2022-09-18T08:15:23.720Z,13.40
2022-09-18T08:18:14.614Z,13.30
2022-09-18T08:20:59.793Z,13.30
2022-09-18T08:23:37.246Z,13.30
2022-09-18T08:26:07.488Z,13.30
2022-09-18T08:28:36.219Z,13.30
2022-09-18T08:31:08.211Z,13.30
2022-09-18T08:33:36.546Z,13.30
2022-09-18T08:36:05.003Z,13.40
2022-09-18T08:38:36.829Z,13.40
2022-09-18T08:41:39.149Z,13.40
2022-09-18T08:44:12.428Z,13.50
2022-09-18T08:46:49.662Z,13.50
2022-09-18T08:49:30.772Z,13.50
2022-09-18T08:52:10.319Z,13.50
2022-09-18T08:54:48.345Z,13.50
2022-09-18T08:57:38.292Z,13.50
2022-09-18T09:00:20.646Z,13.40
2022-09-18T09:03:10.131Z,13.40
2022-09-18T09:05:46.159Z,13.40
2022-09-18T09:08:34.268Z,13.40
2022-09-18T09:11:12.069Z,13.40
2022-09-18T09:13:57.102Z,13.30
2022-09-18T09:16:51.475Z,13.30
2022-09-18T09:19:31.331Z,13.30
2022-09-18T09:22:07.566Z,13.40
2022-09-18T09:24:44.500Z,13.40
2022-09-18T09:27:36.512Z,13.60
2022-09-18T09:30:21.623Z,13.70
2022-09-18T09:33:20.226Z,13.80
2022-09-18T09:36:23.069Z,13.90
2022-09-18T09:38:56.983Z,14.00
2022-09-18T09:41:34.045Z,14.00
2022-09-18T09:44:29.036Z,14.10
2022-09-18T09:47:05.298Z,14.10
2022-09-18T09:49:40.223Z,14.20
2022-09-18T09:52:16.901Z,14.20
2022-09-18T09:54:45.863Z,14.30
2022-09-18T09:57:24.195Z,14.30
2022-09-18T10:00:00.706Z,14.40
2022-09-18T10:03:05.363Z,14.40
2022-09-18T10:05:45.060Z,14.40
2022-09-18T10:08:23.335Z,14.50
2022-09-18T10:10:57.889Z,14.50
2022-09-18T10:13:32.064Z,14.50
2022-09-18T10:16:08.684Z,14.50
2022-09-18T10:18:43.526Z,14.50
2022-09-18T10:21:14.826Z,14.40
2022-09-18T10:23:46.204Z,14.30
2022-09-18T10:26:21.086Z,14.30
2022-09-18T10:28:49.495Z,14.30
2022-09-18T10:31:18.553Z,14.20
2022-09-18T10:33:53.322Z,14.20
2022-09-18T10:36:35.250Z,14.30
2022-09-18T10:39:26.913Z,14.50
2022-09-18T10:42:02.651Z,14.80
2022-09-18T10:44:34.525Z,14.90
2022-09-18T10:47:10.884Z,15.10
2022-09-18T10:49:51.695Z,15.10
2022-09-18T10:52:35.953Z,15.10
2022-09-18T10:55:26.085Z,15.10
2022-09-18T10:58:08.316Z,15.10
2022-09-18T11:00:40.654Z,15.20
2022-09-18T11:03:38.786Z,15.20
2022-09-18T11:06:11.195Z,15.40
2022-09-18T11:08:46.457Z,15.60
2022-09-18T11:11:25.237Z,15.80
2022-09-18T11:13:59.954Z,16.10
2022-09-18T11:16:42.921Z,16.30
2022-09-18T11:19:23.473Z,16.50
2022-09-18T11:21:55.257Z,16.70
2022-09-18T11:24:26.741Z,17.10
2022-09-18T11:27:05.017Z,17.60
2022-09-18T11:29:39.694Z,18.10
2022-09-18T11:32:17.486Z,18.40
2022-09-18T11:34:52.063Z,18.60
2022-09-18T11:37:30.846Z,18.90
2022-09-18T11:40:23.094Z,19.30
2022-09-18T11:42:55.437Z,19.80
2022-09-18T11:45:36.952Z,20.10
2022-09-18T11:48:15.639Z,20.50
2022-09-18T11:50:44.283Z,20.80
2022-09-18T11:53:18.967Z,21.20
2022-09-18T11:55:54.890Z,21.60
2022-09-18T11:58:29.783Z,22.20
2022-09-18T12:01:10.309Z,22.70
2022-09-18T12:03:43.545Z,22.90
2022-09-18T12:06:19.423Z,22.90
2022-09-18T12:08:55.440Z,22.50
2022-09-18T12:11:33.315Z,22.00
2022-09-18T12:14:12.849Z,21.50
2022-09-18T12:16:52.602Z,21.20
2022-09-18T12:19:29.650Z,21.10
2022-09-18T12:22:04.158Z,21.40
2022-09-18T12:24:32.798Z,21.60
2022-09-18T12:27:28.022Z,21.90
2022-09-18T12:30:08.591Z,22.20
2022-09-18T12:33:17.700Z,22.40
2022-09-18T12:36:15.807Z,22.40
2022-09-18T12:38:57.010Z,22.20
2022-09-18T12:41:41.325Z,21.90
2022-09-18T12:44:45.140Z,21.60
2022-09-18T12:47:39.008Z,21.20
2022-09-18T12:50:23.295Z,20.70
2022-09-18T12:53:10.276Z,20.50
2022-09-18T12:55:57.004Z,20.60
2022-09-18T12:58:52.008Z,21.00
2022-09-18T13:01:28.490Z,21.30
2022-09-18T13:04:06.926Z,21.40
2022-09-18T13:06:42.555Z,21.40
2022-09-18T13:09:23.875Z,21.20
2022-09-18T13:11:58.748Z,21.30
2022-09-18T13:14:30.217Z,21.50
2022-09-18T13:17:06.738Z,21.60
2022-09-18T13:19:40.716Z,21.60
2022-09-18T13:22:14.222Z,21.60
2022-09-18T13:24:44.855Z,21.70
2022-09-18T13:27:17.008Z,21.60
2022-09-18T13:29:56.703Z,21.50
2022-09-18T13:32:38.067Z,21.30
2022-09-18T13:35:20.905Z,21.10
2022-09-18T13:37:50.007Z,20.80
2022-09-18T13:40:35.438Z,20.40
2022-09-18T13:43:36.745Z,20.00
2022-09-18T13:46:07.305Z,19.70
2022-09-18T13:48:43.417Z,19.30
2022-09-18T13:51:22.067Z,19.00
2022-09-18T13:54:17.821Z,18.70
2022-09-18T13:57:29.842Z,18.50
2022-09-18T14:00:01.680Z,18.30
2022-09-18T14:02:41.287Z,18.10
2022-09-18T14:05:32.808Z,17.90
2022-09-18T14:08:13.671Z,17.80
2022-09-18T14:11:19.566Z,17.80
2022-09-18T14:13:54.226Z,18.20
2022-09-18T14:16:35.503Z,19.00
2022-09-18T14:19:08.674Z,19.70
2022-09-18T14:21:43.343Z,20.10
2022-09-18T14:24:56.329Z,20.40
2022-09-18T14:27:57.011Z,20.40
2022-09-18T14:30:26.985Z,20.50
2022-09-18T14:33:07.355Z,20.50
2022-09-18T14:35:42.046Z,20.60
2022-09-18T14:38:27.554Z,20.60
2022-09-18T14:41:00.942Z,20.60
2022-09-18T14:43:29.254Z,20.30
2022-09-18T14:45:57.752Z,20.10
2022-09-18T14:48:31.313Z,19.70
2022-09-18T14:51:05.875Z,19.40
2022-09-18T14:53:44.006Z,19.10
2022-09-18T14:56:16.696Z,18.80
2022-09-18T14:58:47.895Z,18.50
2022-09-18T15:01:19.951Z,18.30
2022-09-18T15:03:51.208Z,18.00
2022-09-18T15:06:22.373Z,17.80
2022-09-18T15:08:54.448Z,17.60
2022-09-18T15:11:37.555Z,17.40
2022-09-18T15:14:22.735Z,17.20
2022-09-18T15:16:58.251Z,16.90
2022-09-18T15:19:27.176Z,16.70
2022-09-18T15:21:57.057Z,16.40
2022-09-18T15:24:25.934Z,16.20
2022-09-18T15:26:58.745Z,15.90
2022-09-18T15:29:32.091Z,15.80
2022-09-18T15:32:03.434Z,15.70
2022-09-18T15:34:39.442Z,15.50
2022-09-18T15:37:08.435Z,15.50
2022-09-18T15:39:39.657Z,15.40
2022-09-18T15:42:24.747Z,15.40
2022-09-18T15:45:18.272Z,15.40
2022-09-18T15:47:46.671Z,15.40
2022-09-18T15:50:40.735Z,15.30
2022-09-18T15:53:19.499Z,15.30
2022-09-18T15:55:54.159Z,15.20
2022-09-18T15:58:37.107Z,15.10
2022-09-18T16:01:07.522Z,15.00
2022-09-18T16:03:42.502Z,14.90
2022-09-18T16:06:25.860Z,14.80
2022-09-18T16:08:56.687Z,14.60
2022-09-18T16:11:41.606Z,14.50
2022-09-18T16:14:39.745Z,14.40
2022-09-18T16:17:37.259Z,14.30
2022-09-18T16:20:25.790Z,14.10
2022-09-18T16:22:58.127Z,14.00
2022-09-18T16:25:29.779Z,13.90
2022-09-18T16:28:00.449Z,13.80
2022-09-18T16:30:30.210Z,13.70
2022-09-18T16:33:04.178Z,13.60
2022-09-18T16:35:32.462Z,13.50
2022-09-18T16:38:00.747Z,13.50
2022-09-18T16:40:31.354Z,13.40
2022-09-18T16:42:59.659Z,13.30
2022-09-18T16:45:29.530Z,13.30
2022-09-18T16:48:00.622Z,13.20
2022-09-18T16:50:29.273Z,13.10
2022-09-18T16:53:01.429Z,13.00
2022-09-18T16:55:31.351Z,13.00
2022-09-18T16:57:59.940Z,12.90
2022-09-18T17:00:29.582Z,12.80
2022-09-18T17:02:58.126Z,12.80
2022-09-18T17:05:26.526Z,12.70
2022-09-18T17:07:54.783Z,12.70
2022-09-18T17:10:23.119Z,12.60
2022-09-18T17:12:51.459Z,12.60
2022-09-18T17:15:19.910Z,12.60
2022-09-18T17:17:49.539Z,12.50
2022-09-18T17:20:18.717Z,12.50
2022-09-18T17:22:48.096Z,12.50
2022-09-18T17:25:16.848Z,12.50
2022-09-18T17:27:45.420Z,12.50
2022-09-18T17:30:13.950Z,12.50
2022-09-18T17:32:42.335Z,12.50
2022-09-18T17:35:13.462Z,12.50
2022-09-18T17:37:42.108Z,12.50
2022-09-18T17:40:11.136Z,12.50
2022-09-18T17:42:40.078Z,12.40
2022-09-18T17:45:09.471Z,12.40
2022-09-18T17:47:37.857Z,12.30
2022-09-18T17:50:07.576Z,12.30
2022-09-18T17:52:37.891Z,12.30
2022-09-18T17:55:07.002Z,12.20
2022-09-18T17:57:38.248Z,12.10
2022-09-18T18:00:07.778Z,12.10
2022-09-18T18:02:40.204Z,12.10
2022-09-18T18:05:08.933Z,12.00
2022-09-18T18:07:38.592Z,11.90
2022-09-18T18:10:07.590Z,11.90
2022-09-18T18:12:36.375Z,11.80
2022-09-18T18:15:04.831Z,11.80
2022-09-18T18:17:35.961Z,11.80
2022-09-18T18:20:05.932Z,11.70
2022-09-18T18:22:34.257Z,11.70
2022-09-18T18:25:03.957Z,11.60
2022-09-18T18:27:33.533Z,11.60
2022-09-18T18:30:02.859Z,11.60
2022-09-18T18:32:33.690Z,11.60
2022-09-18T18:35:02.275Z,11.70
2022-09-18T18:37:31.007Z,11.70
2022-09-18T18:39:59.450Z,11.70
2022-09-18T18:42:29.219Z,11.70
2022-09-18T18:44:58.971Z,11.80
2022-09-18T18:47:29.633Z,11.80
2022-09-18T18:49:58.131Z,11.90
2022-09-18T18:52:26.769Z,11.90
2022-09-18T18:54:55.022Z,12.00
2022-09-18T18:57:23.338Z,12.00
2022-09-18T18:59:53.145Z,12.10
2022-09-18T19:02:21.499Z,12.10
2022-09-18T19:04:50.479Z,12.20
2022-09-18T19:07:18.740Z,12.20
2022-09-18T19:09:47.057Z,12.20
2022-09-18T19:12:17.407Z,12.30
2022-09-18T19:14:45.802Z,12.30
2022-09-18T19:17:17.269Z,12.30
2022-09-18T19:19:46.309Z,12.30
2022-09-18T19:22:19.167Z,12.30
2022-09-18T19:24:48.190Z,12.30
2022-09-18T19:27:16.469Z,12.40
2022-09-18T19:29:45.031Z,12.40
2022-09-18T19:32:15.159Z,12.40
2022-09-18T19:34:44.783Z,12.40
2022-09-18T19:37:17.815Z,12.50
2022-09-18T19:39:49.037Z,12.50
2022-09-18T19:42:18.159Z,12.50
2022-09-18T19:44:49.978Z,12.50
2022-09-18T19:47:22.018Z,12.50
2022-09-18T19:49:52.660Z,12.50
2022-09-18T19:52:23.015Z,12.50
2022-09-18T19:54:54.559Z,12.50
2022-09-18T19:57:24.319Z,12.50
2022-09-18T19:59:54.330Z,12.50
2022-09-18T20:02:23.959Z,12.50
2022-09-18T20:04:53.749Z,12.50
2022-09-18T20:07:21.965Z,12.40
2022-09-18T20:09:50.868Z,12.50
2022-09-18T20:12:19.527Z,12.50
2022-09-18T20:14:47.861Z,12.40
2022-09-18T20:17:16.129Z,12.50
2022-09-18T20:19:46.778Z,12.50
2022-09-18T20:22:16.474Z,12.40
2022-09-18T20:24:44.791Z,12.50
2022-09-18T20:27:15.437Z,12.40
2022-09-18T20:29:43.781Z,12.40
2022-09-18T20:32:12.191Z,12.40
2022-09-18T20:34:42.843Z,12.40
2022-09-18T20:37:13.129Z,12.40
2022-09-18T20:39:42.648Z,12.40
2022-09-18T20:42:10.976Z,12.40
2022-09-18T20:44:39.162Z,12.30
2022-09-18T20:47:07.603Z,12.30
2022-09-18T20:49:37.899Z,12.30
2022-09-18T20:52:06.421Z,12.30
2022-09-18T20:54:34.696Z,12.30
2022-09-18T20:57:04.413Z,12.30
2022-09-18T20:59:32.754Z,12.20
2022-09-18T21:02:01.127Z,12.20
2022-09-18T21:04:29.463Z,12.20
2022-09-18T21:06:58.886Z,12.20
2022-09-18T21:09:28.931Z,12.20
2022-09-18T21:11:57.431Z,12.20
2022-09-18T21:14:27.397Z,12.20
2022-09-18T21:16:56.088Z,12.20
2022-09-18T21:19:26.732Z,12.20
2022-09-18T21:21:55.451Z,12.20
2022-09-18T21:24:23.794Z,12.20
2022-09-18T21:26:52.143Z,12.20
2022-09-18T21:29:22.860Z,12.20
2022-09-18T21:31:54.633Z,12.20
2022-09-18T21:34:26.715Z,12.20
2022-09-18T21:36:57.840Z,12.20
2022-09-18T21:39:28.183Z,12.20
2022-09-18T21:41:56.969Z,12.20
2022-09-18T21:44:27.679Z,12.20
2022-09-18T21:46:59.238Z,12.30
2022-09-18T21:49:29.160Z,12.30
2022-09-18T21:52:00.134Z,12.30
2022-09-18T21:54:28.854Z,12.30
2022-09-18T21:56:57.205Z,12.30
2022-09-18T21:59:28.998Z,12.30
2022-09-18T22:01:59.373Z,12.30
2022-09-18T22:04:30.036Z,12.30
2022-09-18T22:07:00.447Z,12.30
2022-09-18T22:09:30.782Z,12.30
2022-09-18T22:12:18.994Z,12.30
2022-09-18T22:14:47.264Z,12.30
2022-09-18T22:17:17.508Z,12.30
2022-09-18T22:19:45.973Z,12.30
2022-09-18T22:22:14.253Z,12.20
2022-09-18T22:24:42.512Z,12.20
2022-09-18T22:27:13.037Z,12.20
2022-09-18T22:29:42.270Z,12.20
2022-09-18T22:32:11.353Z,12.20
2022-09-18T22:34:41.724Z,12.20
2022-09-18T22:37:24.887Z,12.10
2022-09-18T22:39:53.366Z,12.10
2022-09-18T22:42:21.897Z,12.10
2022-09-18T22:44:50.359Z,12.00
2022-09-18T22:47:18.801Z,12.00
2022-09-18T22:49:48.327Z,12.00
2022-09-18T22:52:16.696Z,11.90
2022-09-18T22:54:44.927Z,11.90
2022-09-18T22:57:13.188Z,11.90
2022-09-18T22:59:41.436Z,11.90
2022-09-18T23:02:09.877Z,11.80
2022-09-18T23:04:38.375Z,11.80
2022-09-18T23:07:07.996Z,11.80
2022-09-18T23:09:36.258Z,11.80
2022-09-18T23:12:04.597Z,11.70
2022-09-18T23:14:32.966Z,11.70
2022-09-18T23:17:02.918Z,11.60
2022-09-18T23:19:33.357Z,11.60
2022-09-18T23:22:02.410Z,11.60
2022-09-18T23:24:32.946Z,11.60
2022-09-18T23:27:01.436Z,11.60
2022-09-18T23:29:31.912Z,11.50
2022-09-18T23:32:00.564Z,11.50
2022-09-18T23:34:31.359Z,11.50
2022-09-18T23:37:00.752Z,11.50
2022-09-18T23:39:32.460Z,11.50
2022-09-18T23:42:02.185Z,11.50
2022-09-18T23:44:31.545Z,11.50
2022-09-18T23:47:00.868Z,11.50
2022-09-18T23:49:29.324Z,11.50
2022-09-18T23:51:59.446Z,11.50
2022-09-18T23:54:29.668Z,11.50
2022-09-18T23:56:59.659Z,11.50
2022-09-18T23:59:28.555Z,11.50
